createdAt,value
2022-10-11T00:00:53.684Z,13.85
2022-10-11T00:03:33.867Z,9.95
2022-10-11T00:06:03.827Z,14.93
2022-10-11T00:08:33.477Z,11.48
2022-10-11T00:11:05.038Z,17.83
2022-10-11T00:13:33.272Z,16.98
2022-10-11T00:16:01.210Z,13.45
2022-10-11T00:18:28.914Z,14.13
2022-10-11T00:21:06.511Z,10.82
2022-10-11T00:23:34.505Z,9.00
2022-10-11T00:26:06.687Z,11.40
2022-10-11T00:28:35.351Z,12.73
2022-10-11T00:31:07.611Z,13.85
2022-10-11T00:33:35.706Z,12.90
2022-10-11T00:36:04.331Z,8.48
2022-10-11T00:38:32.247Z,8.68
2022-10-11T00:41:00.555Z,17.13
2022-10-11T00:43:30.844Z,14.63
2022-10-11T00:45:58.247Z,8.77
2022-10-11T00:48:33.762Z,9.05
2022-10-11T00:51:06.428Z,11.60
2022-10-11T00:53:34.580Z,7.15
2022-10-11T00:56:20.677Z,13.23
2022-10-11T00:58:48.634Z,8.10
2022-10-11T01:01:16.558Z,13.48
2022-10-11T01:03:44.956Z,9.75
2022-10-11T01:06:12.687Z,4.68
2022-10-11T01:08:40.792Z,9.68
2022-10-11T01:11:17.530Z,7.57
2022-10-11T01:14:23.099Z,17.33
2022-10-11T01:16:57.859Z,8.13
2022-10-11T01:19:34.363Z,11.93
2022-10-11T01:22:42.849Z,8.30
2022-10-11T01:25:43.860Z,7.82
2022-10-11T01:28:37.218Z,6.97
2022-10-11T01:31:28.091Z,6.40
2022-10-11T01:34:32.469Z,8.77
2022-10-11T01:37:13.930Z,6.28
2022-10-11T01:39:51.828Z,8.63
2022-10-11T01:42:20.894Z,6.57
2022-10-11T01:44:49.961Z,5.32
2022-10-11T01:47:25.213Z,19.48
2022-10-11T01:50:02.157Z,6.05
2022-10-11T01:52:34.144Z,8.55
2022-10-11T01:55:28.291Z,10.38
2022-10-11T01:58:21.056Z,6.47
2022-10-11T02:01:06.798Z,6.75
2022-10-11T02:03:54.200Z,13.18
2022-10-11T02:06:56.978Z,10.00
2022-10-11T02:09:42.863Z,11.02
2022-10-11T02:12:16.441Z,9.35
2022-10-11T02:14:49.511Z,9.13
2022-10-11T02:17:24.416Z,4.55
2022-10-11T02:19:56.821Z,5.65
2022-10-11T02:22:35.717Z,8.45
2022-10-11T02:25:09.501Z,9.02
2022-10-11T02:27:41.144Z,7.57
2022-10-11T02:30:10.193Z,4.72
2022-10-11T02:32:41.821Z,3.88
2022-10-11T02:35:11.814Z,5.82
2022-10-11T02:38:02.943Z,7.43
2022-10-11T02:40:40.734Z,6.07
2022-10-11T02:43:19.593Z,9.52
2022-10-11T02:46:01.566Z,7.70
2022-10-11T02:48:30.830Z,10.68
2022-10-11T02:50:59.450Z,7.35
2022-10-11T02:53:27.296Z,6.30
2022-10-11T02:55:56.146Z,9.65
2022-10-11T02:58:24.748Z,5.07
2022-10-11T03:00:52.402Z,8.93
2022-10-11T03:03:20.232Z,9.13
2022-10-11T03:05:48.144Z,10.15
2022-10-11T03:08:17.686Z,5.28
2022-10-11T03:10:45.547Z,6.05
2022-10-11T03:13:17.859Z,4.55
2022-10-11T03:16:02.942Z,11.48
2022-10-11T03:18:34.789Z,15.23
2022-10-11T03:21:02.559Z,13.55
2022-10-11T03:23:30.137Z,7.28
2022-10-11T03:25:57.780Z,10.65
2022-10-11T03:28:25.552Z,12.48
2022-10-11T03:30:53.200Z,10.38
2022-10-11T03:33:20.837Z,4.70
2022-10-11T03:35:49.703Z,8.18
2022-10-11T03:38:22.081Z,4.25
2022-10-11T03:40:50.160Z,8.68
2022-10-11T03:43:17.794Z,8.30
2022-10-11T03:45:45.323Z,5.07
2022-10-11T03:48:13.154Z,9.18
2022-10-11T03:50:40.861Z,9.23
2022-10-11T03:53:08.935Z,8.30
2022-10-11T03:55:40.345Z,3.55
2022-10-11T03:58:09.097Z,8.43
2022-10-11T04:00:37.175Z,7.97
2022-10-11T04:03:05.025Z,9.40
2022-10-11T04:05:32.490Z,4.72
2022-10-11T04:08:00.158Z,5.15
2022-10-11T04:10:28.183Z,11.68
2022-10-11T04:12:55.800Z,5.63
2022-10-11T04:15:23.607Z,8.88
2022-10-11T04:17:51.278Z,11.73
2022-10-11T04:20:18.982Z,10.57
2022-10-11T04:22:46.465Z,9.23
2022-10-11T04:25:14.565Z,6.82
2022-10-11T04:27:42.715Z,8.95
2022-10-11T04:30:11.630Z,4.60
2022-10-11T04:32:58.062Z,4.75
2022-10-11T04:35:25.574Z,12.55
2022-10-11T04:37:53.155Z,7.43
2022-10-11T04:40:20.901Z,12.38
2022-10-11T04:42:50.645Z,5.97
2022-10-11T04:45:18.388Z,10.50
2022-10-11T04:47:46.420Z,4.38
2022-10-11T04:50:13.991Z,4.93
2022-10-11T04:52:41.537Z,5.35
2022-10-11T04:55:10.675Z,6.68
2022-10-11T04:57:38.245Z,10.45
2022-10-11T05:00:07.213Z,9.63
2022-10-11T05:02:35.338Z,13.65
2022-10-11T05:05:02.887Z,7.45
2022-10-11T05:07:30.379Z,14.45
2022-10-11T05:09:58.206Z,13.38
2022-10-11T05:12:25.805Z,11.27
2022-10-11T05:14:53.894Z,10.52
2022-10-11T05:17:22.054Z,8.20
2022-10-11T05:19:49.584Z,8.90
2022-10-11T05:22:17.059Z,6.78
2022-10-11T05:24:44.816Z,10.18
2022-10-11T05:27:12.247Z,11.65
2022-10-11T05:29:39.755Z,7.93
2022-10-11T05:32:07.720Z,20.80
2022-10-11T05:34:35.271Z,12.10
2022-10-11T05:37:03.147Z,5.07
2022-10-11T05:39:30.912Z,9.13
2022-10-11T05:41:58.427Z,9.68
2022-10-11T05:44:26.306Z,3.50
2022-10-11T05:46:53.734Z,6.63
2022-10-11T05:49:21.345Z,9.40
2022-10-11T05:51:49.038Z,15.20
2022-10-11T05:54:16.534Z,5.93
2022-10-11T05:56:44.123Z,5.18
2022-10-11T05:59:11.886Z,5.32
2022-10-11T06:01:39.658Z,6.95
2022-10-11T06:04:08.316Z,10.43
2022-10-11T06:06:36.040Z,10.65
2022-10-11T06:09:03.758Z,7.97
2022-10-11T06:11:31.239Z,8.38
2022-10-11T06:13:59.261Z,18.13
2022-10-11T06:16:27.641Z,9.45
2022-10-11T06:18:56.805Z,11.02
2022-10-11T06:23:58.242Z,7.93
2022-10-11T06:26:28.547Z,6.03
2022-10-11T06:28:56.501Z,7.55
2022-10-11T06:31:24.741Z,8.27
2022-10-11T06:33:52.263Z,11.00
2022-10-11T06:36:19.823Z,18.38
2022-10-11T06:38:47.715Z,9.82
2022-10-11T06:41:22.390Z,6.93
2022-10-11T06:43:50.954Z,6.35
2022-10-11T06:46:20.633Z,18.25
2022-10-11T06:48:49.137Z,27.67
2022-10-11T06:51:20.279Z,8.60
2022-10-11T06:53:56.449Z,7.63
2022-10-11T06:56:26.639Z,10.55
2022-10-11T06:58:56.309Z,8.05
2022-10-11T07:01:24.667Z,8.45
2022-10-11T07:03:55.423Z,10.23
2022-10-11T07:06:26.968Z,8.13
2022-10-11T07:08:55.623Z,13.32
2022-10-11T07:11:26.557Z,8.25
2022-10-11T07:14:00.620Z,6.90
2022-10-11T07:16:29.115Z,8.88
2022-10-11T07:19:01.228Z,7.07
2022-10-11T07:21:31.958Z,5.45
2022-10-11T07:24:00.395Z,5.65
2022-10-11T07:26:32.421Z,10.45
2022-10-11T07:29:01.815Z,8.40
2022-10-11T07:31:29.455Z,10.40
2022-10-11T07:33:57.069Z,15.93
2022-10-11T07:36:26.502Z,7.57
2022-10-11T07:41:22.180Z,10.65
2022-10-11T07:43:51.110Z,5.45
2022-10-11T07:46:19.100Z,12.10
2022-10-11T07:48:46.803Z,9.88
2022-10-11T07:51:21.860Z,18.58
2022-10-11T07:53:55.856Z,8.35
2022-10-11T07:56:29.221Z,20.38
2022-10-11T07:59:00.611Z,10.48
2022-10-11T08:01:29.121Z,7.45
2022-10-11T08:03:57.513Z,8.32
2022-10-11T08:06:30.249Z,12.82
2022-10-11T08:09:00.654Z,8.35
2022-10-11T08:11:46.576Z,18.90
2022-10-11T08:14:14.458Z,11.50
2022-10-11T08:16:41.987Z,9.25
2022-10-11T08:19:10.824Z,16.90
2022-10-11T08:21:38.666Z,14.65
2022-10-11T08:24:07.065Z,13.52
2022-10-11T08:26:35.674Z,17.45
2022-10-11T08:29:05.403Z,11.20
2022-10-11T08:31:35.222Z,11.77
2022-10-11T08:36:30.665Z,10.20
2022-10-11T08:38:58.902Z,9.18
2022-10-11T08:41:39.384Z,12.68
2022-10-11T08:45:08.998Z,12.25
2022-10-11T08:47:36.461Z,7.57
2022-10-11T08:50:19.843Z,6.25
2022-10-11T08:53:04.753Z,8.65
2022-10-11T08:55:40.407Z,13.38
2022-10-11T08:58:15.071Z,10.45
2022-10-11T09:00:46.261Z,6.50
2022-10-11T09:03:25.507Z,10.05
2022-10-11T09:06:16.315Z,7.20
2022-10-11T09:09:43.205Z,12.63
2022-10-11T09:12:32.382Z,9.82
2022-10-11T09:15:42.364Z,17.35
2022-10-11T09:18:19.467Z,8.63
2022-10-11T09:20:58.804Z,14.90
2022-10-11T09:23:35.428Z,10.77
2022-10-11T09:26:11.173Z,15.38
2022-10-11T09:29:01.435Z,9.00
2022-10-11T09:31:30.208Z,10.27
2022-10-11T09:34:06.331Z,12.88
2022-10-11T09:36:57.112Z,16.45
2022-10-11T09:39:38.973Z,15.70
2022-10-11T09:42:12.173Z,16.38
2022-10-11T09:44:51.854Z,10.52
2022-10-11T09:47:25.135Z,13.52
2022-10-11T09:50:13.876Z,16.98
2022-10-11T09:52:58.101Z,16.25
2022-10-11T09:55:33.936Z,14.40
2022-10-11T09:58:02.266Z,14.63
2022-10-11T10:00:33.893Z,15.35
2022-10-11T10:03:04.680Z,18.83
2022-10-11T10:05:36.918Z,20.52
2022-10-11T10:08:09.788Z,10.82
2022-10-11T10:10:55.856Z,19.10
2022-10-11T10:13:56.798Z,21.20
2022-10-11T10:16:34.805Z,18.65
2022-10-11T10:19:24.123Z,17.13
2022-10-11T10:21:55.461Z,9.93
2022-10-11T10:24:40.512Z,15.93
2022-10-11T10:27:14.281Z,20.27
2022-10-11T10:29:42.161Z,15.35
2022-10-11T10:32:22.538Z,13.60
2022-10-11T10:35:07.518Z,15.15
2022-10-11T10:37:59.536Z,18.75
2022-10-11T10:41:17.875Z,15.68
2022-10-11T10:43:54.244Z,10.68
2022-10-11T10:46:40.227Z,18.08
2022-10-11T10:49:48.919Z,17.45
2022-10-11T10:52:50.632Z,26.38
2022-10-11T10:55:44.557Z,19.25
2022-10-11T10:58:56.523Z,22.30
2022-10-11T11:01:29.431Z,28.52
2022-10-11T11:03:59.726Z,27.20
2022-10-11T11:06:54.118Z,25.65
2022-10-11T11:10:07.132Z,20.52
2022-10-11T11:12:55.566Z,24.27
2022-10-11T11:15:48.422Z,24.88
2022-10-11T11:18:37.092Z,25.92
2022-10-11T11:21:48.180Z,26.13
2022-10-11T11:24:58.393Z,30.35
2022-10-11T11:27:51.033Z,29.08
2022-10-11T11:30:45.144Z,26.77
2022-10-11T11:33:49.150Z,31.00
2022-10-11T11:36:43.394Z,35.78
2022-10-11T11:39:36.797Z,28.25
2022-10-11T11:42:31.809Z,25.17
2022-10-11T11:45:23.686Z,24.60
2022-10-11T11:48:11.785Z,28.25
2022-10-11T11:50:47.094Z,34.45
2022-10-11T11:53:25.146Z,34.97
2022-10-11T11:56:07.350Z,39.42
2022-10-11T11:59:23.486Z,25.73
2022-10-11T12:02:23.699Z,36.08
2022-10-11T12:04:52.408Z,32.60
2022-10-11T12:07:23.796Z,33.60
2022-10-11T12:10:18.573Z,34.03
2022-10-11T12:12:46.303Z,31.90
2022-10-11T12:15:26.205Z,31.90
2022-10-11T12:17:53.705Z,43.55
2022-10-11T12:20:29.987Z,38.28
2022-10-11T12:23:05.777Z,39.58
2022-10-11T12:25:44.674Z,38.60
2022-10-11T12:28:43.035Z,42.92
2022-10-11T12:31:26.726Z,39.10
2022-10-11T12:37:20.337Z,49.35
2022-10-11T12:42:36.947Z,46.92
2022-10-11T12:45:14.062Z,43.65
2022-10-11T12:48:04.068Z,42.92
2022-10-11T12:50:37.309Z,46.75
2022-10-11T12:54:08.221Z,49.88
2022-10-11T12:57:17.677Z,32.50
2022-10-11T12:59:49.316Z,32.15
2022-10-11T13:02:36.370Z,27.40
2022-10-11T13:05:26.639Z,28.55
2022-10-11T13:07:58.751Z,33.28
2022-10-11T13:10:53.939Z,20.48
2022-10-11T13:13:32.129Z,28.42
2022-10-11T13:16:21.474Z,36.97
2022-10-11T13:21:29.716Z,29.15
2022-10-11T13:24:18.965Z,27.73
2022-10-11T13:26:50.541Z,26.23
2022-10-11T13:29:39.725Z,26.50
2022-10-11T13:32:23.864Z,29.10
2022-10-11T13:34:58.620Z,24.60
2022-10-11T13:37:29.887Z,22.60
2022-10-11T13:39:58.562Z,30.25
2022-10-11T13:42:31.394Z,29.40
2022-10-11T13:45:00.543Z,25.73
2022-10-11T13:47:31.604Z,25.38
2022-10-11T13:50:17.562Z,26.15
2022-10-11T13:53:08.470Z,27.35
2022-10-11T13:55:59.906Z,28.20
2022-10-11T13:58:46.877Z,30.92
2022-10-11T14:01:40.734Z,28.30
2022-10-11T14:04:12.778Z,28.63
2022-10-11T14:06:50.825Z,24.98
2022-10-11T14:09:38.952Z,36.13
2022-10-11T14:12:33.568Z,27.88
2022-10-11T14:15:04.783Z,28.10
2022-10-11T14:17:45.655Z,26.50
2022-10-11T14:20:39.681Z,32.55
2022-10-11T14:23:07.846Z,34.22
2022-10-11T14:25:35.693Z,36.72
2022-10-11T14:28:05.742Z,33.92
2022-10-11T14:30:33.483Z,36.20
2022-10-11T14:33:02.665Z,30.70
2022-10-11T14:35:35.033Z,42.63
2022-10-11T14:38:02.805Z,29.25
2022-10-11T14:40:31.876Z,35.33
2022-10-11T14:42:59.480Z,39.55
2022-10-11T14:45:28.381Z,37.28
2022-10-11T14:47:56.589Z,36.55
2022-10-11T14:50:52.751Z,41.37
2022-10-11T14:53:20.287Z,43.83
2022-10-11T14:55:48.409Z,42.63
2022-10-11T14:58:17.902Z,42.03
2022-10-11T15:00:46.302Z,40.15
2022-10-11T15:03:15.471Z,43.40
2022-10-11T15:05:43.033Z,36.83
2022-10-11T15:08:14.861Z,42.17
2022-10-11T15:10:43.700Z,42.40
2022-10-11T15:13:11.289Z,43.57
2022-10-11T15:15:41.495Z,41.15
2022-10-11T15:18:17.664Z,44.15
2022-10-11T15:20:46.671Z,43.13
2022-10-11T15:23:14.509Z,38.97
2022-10-11T15:25:42.781Z,41.25
2022-10-11T15:28:28.095Z,63.80
2022-10-11T15:30:57.081Z,59.42
2022-10-11T15:33:25.375Z,51.53
2022-10-11T15:38:25.332Z,63.42
2022-10-11T15:40:54.211Z,69.97
2022-10-11T15:43:24.932Z,57.80
2022-10-11T15:45:54.371Z,55.17
2022-10-11T15:48:26.355Z,55.22
2022-10-11T15:50:54.907Z,55.88
2022-10-11T15:53:31.068Z,49.08
2022-10-11T15:56:07.202Z,46.53
2022-10-11T15:58:39.289Z,56.70
2022-10-11T16:01:19.898Z,56.20
2022-10-11T16:03:49.884Z,48.65
2022-10-11T16:06:19.746Z,58.42
2022-10-11T16:08:48.059Z,52.03
2022-10-11T16:11:16.124Z,53.33
2022-10-11T16:13:43.636Z,49.15
2022-10-11T16:16:12.299Z,50.97
2022-10-11T16:18:40.754Z,58.85
2022-10-11T16:21:13.365Z,50.22
2022-10-11T16:23:41.111Z,56.80
2022-10-11T16:26:13.805Z,57.53
2022-10-11T16:28:42.642Z,56.83
2022-10-11T16:31:18.171Z,59.77
2022-10-11T16:33:46.419Z,56.25
2022-10-11T16:36:40.570Z,62.70
2022-10-11T16:39:18.376Z,56.25
2022-10-11T16:41:47.244Z,57.95
2022-10-11T16:44:17.891Z,63.65
2022-10-11T16:46:48.350Z,62.75
2022-10-11T16:49:22.131Z,57.20
2022-10-11T16:51:55.955Z,61.33
2022-10-11T16:54:23.777Z,60.03
2022-10-11T16:56:51.490Z,63.80
2022-10-11T16:59:20.027Z,63.70
2022-10-11T17:01:47.851Z,61.15
2022-10-11T17:04:16.089Z,69.82
2022-10-11T17:06:44.037Z,64.90
2022-10-11T17:09:12.670Z,80.60
2022-10-11T17:11:40.830Z,66.25
2022-10-11T17:14:09.255Z,66.43
2022-10-11T17:16:36.748Z,70.82
2022-10-11T17:19:05.478Z,67.13
2022-10-11T17:21:32.922Z,70.32
2022-10-11T17:24:00.713Z,68.60
2022-10-11T17:26:28.321Z,85.15
2022-10-11T17:28:59.563Z,73.65
2022-10-11T17:31:30.458Z,82.00
2022-10-11T17:34:00.952Z,89.75
2022-10-11T17:36:34.155Z,73.93
2022-10-11T17:39:07.107Z,66.50
2022-10-11T17:41:35.694Z,72.40
2022-10-11T17:44:04.389Z,68.30
2022-10-11T17:46:32.882Z,68.38
2022-10-11T17:49:05.553Z,77.32
2022-10-11T17:51:34.170Z,75.60
2022-10-11T17:54:02.407Z,79.35
2022-10-11T17:56:35.200Z,67.07
2022-10-11T17:59:06.472Z,73.05
2022-10-11T18:01:34.441Z,75.07
2022-10-11T18:06:39.758Z,72.28
2022-10-11T18:09:07.440Z,63.88
2022-10-11T18:11:35.406Z,75.00
2022-10-11T18:14:04.568Z,70.28
2022-10-11T18:19:04.887Z,68.38
2022-10-11T18:21:34.927Z,85.07
2022-10-11T18:24:15.066Z,91.65
2022-10-11T18:26:46.951Z,83.88
2022-10-11T18:29:14.640Z,94.72
2022-10-11T18:31:42.768Z,103.20
2022-10-11T18:34:13.018Z,95.10
2022-10-11T18:36:40.998Z,98.00
2022-10-11T18:39:13.360Z,106.45
2022-10-11T18:41:44.572Z,98.18
2022-10-11T18:44:15.206Z,94.70
2022-10-11T18:46:44.147Z,91.13
2022-10-11T18:49:13.547Z,95.93
2022-10-11T18:54:15.342Z,95.57
2022-10-11T18:56:46.250Z,100.78
2022-10-11T18:59:14.102Z,97.00
2022-10-11T19:01:44.748Z,95.47
2022-10-11T19:04:17.963Z,94.10
2022-10-11T19:06:48.768Z,98.90
2022-10-11T19:09:22.531Z,95.47
2022-10-11T19:11:53.674Z,100.20
2022-10-11T19:14:28.471Z,96.70
2022-10-11T19:16:57.219Z,105.70
2022-10-11T19:19:29.673Z,101.70
2022-10-11T19:21:58.485Z,102.25
2022-10-11T19:24:29.270Z,96.55
2022-10-11T19:27:02.609Z,98.05
2022-10-11T19:29:31.566Z,99.47
2022-10-11T19:32:03.006Z,107.30
2022-10-11T19:34:32.718Z,106.07
2022-10-11T19:39:30.104Z,100.93
2022-10-11T19:41:57.926Z,100.38
2022-10-11T19:44:25.548Z,106.53
2022-10-11T19:46:53.455Z,93.63
2022-10-11T19:49:25.239Z,113.72
2022-10-11T19:51:55.226Z,101.68
2022-10-11T19:54:23.916Z,103.03
2022-10-11T19:56:51.503Z,112.57
2022-10-11T19:59:19.710Z,104.22
2022-10-11T20:01:52.268Z,99.10
2022-10-11T20:04:50.981Z,102.35
2022-10-11T20:07:08.752Z,101.35
2022-10-11T20:09:36.739Z,106.80
2022-10-11T20:12:05.158Z,111.50
2022-10-11T20:14:33.023Z,125.18
2022-10-11T20:17:00.609Z,105.68
2022-10-11T20:19:31.012Z,105.93
2022-10-11T20:22:00.580Z,104.95
2022-10-11T20:27:06.332Z,106.50
2022-10-11T20:29:35.424Z,100.57
2022-10-11T20:32:02.966Z,98.63
2022-10-11T20:34:31.153Z,100.47
2022-10-11T20:36:58.768Z,96.75
2022-10-11T20:39:26.987Z,104.30
2022-10-11T20:41:54.968Z,87.20
2022-10-11T20:44:23.125Z,96.33
2022-10-11T20:46:50.727Z,95.47
2022-10-11T20:49:19.987Z,96.45
2022-10-11T20:51:48.610Z,92.60
2022-10-11T20:54:16.907Z,96.03
2022-10-11T20:56:45.028Z,89.23
2022-10-11T20:59:12.985Z,91.70
2022-10-11T21:01:41.990Z,87.03
2022-10-11T21:04:19.068Z,92.53
2022-10-11T21:06:48.986Z,89.43
2022-10-11T21:09:17.433Z,99.70
2022-10-11T21:11:45.574Z,79.70
2022-10-11T21:14:13.497Z,96.60
2022-10-11T21:16:41.341Z,85.40
2022-10-11T21:19:15.175Z,82.18
2022-10-11T21:21:43.975Z,84.18
2022-10-11T21:24:11.546Z,82.87
2022-10-11T21:26:39.395Z,90.88
2022-10-11T21:29:08.471Z,95.55
2022-10-11T21:31:36.442Z,88.72
2022-10-11T21:34:05.291Z,90.72
2022-10-11T21:36:33.803Z,94.28
2022-10-11T21:39:01.532Z,88.43
2022-10-11T21:41:30.418Z,85.93
2022-10-11T21:43:58.606Z,88.10
2022-10-11T21:46:54.216Z,87.85
2022-10-11T21:49:18.612Z,95.90
2022-10-11T21:51:46.193Z,86.70
2022-10-11T21:54:14.735Z,91.73
2022-10-11T21:56:42.522Z,95.72
2022-10-11T21:59:12.522Z,94.22
2022-10-11T22:01:41.937Z,91.82
2022-10-11T22:04:10.915Z,89.10
2022-10-11T22:06:39.487Z,86.53
2022-10-11T22:09:08.915Z,88.50
2022-10-11T22:11:37.395Z,87.65
2022-10-11T22:14:05.846Z,89.05
2022-10-11T22:16:34.776Z,83.28
2022-10-11T22:19:03.069Z,83.55
2022-10-11T22:21:31.827Z,84.32
2022-10-11T22:24:01.084Z,80.38
2022-10-11T22:26:31.584Z,81.38
2022-10-11T22:29:00.704Z,89.03
2022-10-11T22:31:30.935Z,90.07
2022-10-11T22:34:01.174Z,87.00
2022-10-11T22:36:30.643Z,88.38
2022-10-11T22:38:58.725Z,82.18
2022-10-11T22:41:26.690Z,97.03
2022-10-11T22:43:54.347Z,89.65
2022-10-11T22:46:21.831Z,87.50
2022-10-11T22:48:49.616Z,91.47
2022-10-11T22:51:17.336Z,88.53
2022-10-11T22:53:44.929Z,89.82
2022-10-11T22:56:12.721Z,92.68
2022-10-11T22:58:40.179Z,84.60
2022-10-11T23:01:10.509Z,96.90
2022-10-11T23:03:38.683Z,89.85
2022-10-11T23:06:06.846Z,92.88
2022-10-11T23:08:34.393Z,86.10
2022-10-11T23:11:07.204Z,84.93
2022-10-11T23:13:35.547Z,92.63
2022-10-11T23:16:11.781Z,88.07
2022-10-11T23:18:39.841Z,89.97
2022-10-11T23:21:08.379Z,88.20
2022-10-11T23:23:36.020Z,86.80
2022-10-11T23:26:06.024Z,88.57
2022-10-11T23:28:34.770Z,92.32
2022-10-11T23:31:08.426Z,83.10
2022-10-11T23:33:36.434Z,91.82
2022-10-11T23:36:04.330Z,89.03
2022-10-11T23:38:31.961Z,98.45
2022-10-11T23:40:59.713Z,89.47
2022-10-11T23:43:27.227Z,88.30
2022-10-11T23:45:55.891Z,106.18
2022-10-11T23:48:23.769Z,97.90
2022-10-11T23:50:51.326Z,98.45
2022-10-11T23:53:18.886Z,97.45
2022-10-11T23:55:46.696Z,100.32
2022-10-11T23:58:14.161Z,109.40
